createdAt,value
2024-05-09T00:00:48.042Z,12.01
2024-05-09T00:03:36.158Z,11.99
2024-05-09T00:06:05.167Z,11.96
2024-05-09T00:08:33.682Z,11.90
2024-05-09T00:11:01.991Z,11.81
2024-05-09T00:13:30.205Z,11.75
2024-05-09T00:15:59.500Z,11.70
2024-05-09T00:18:27.749Z,11.65
2024-05-09T00:20:55.865Z,11.61
2024-05-09T00:23:24.884Z,11.59
2024-05-09T00:25:53.044Z,11.57
2024-05-09T00:28:21.306Z,11.54
2024-05-09T00:30:49.351Z,11.53
2024-05-09T00:33:17.714Z,11.55
2024-05-09T00:35:46.118Z,11.62
2024-05-09T00:38:14.209Z,11.65
2024-05-09T00:40:43.633Z,11.69
2024-05-09T00:43:14.092Z,11.71
2024-05-09T00:45:43.922Z,11.76
2024-05-09T00:48:17.535Z,11.80
2024-05-09T00:50:48.444Z,11.79
2024-05-09T00:53:19.216Z,11.79
2024-05-09T00:55:48.156Z,11.78
2024-05-09T00:58:20.760Z,11.76
2024-05-09T01:00:51.694Z,11.77
2024-05-09T01:03:20.372Z,11.77
2024-05-09T01:05:48.811Z,11.80
2024-05-09T01:08:17.781Z,11.81
2024-05-09T01:10:47.990Z,11.80
2024-05-09T01:13:17.168Z,11.84
2024-05-09T01:15:45.251Z,11.82
2024-05-09T01:18:14.343Z,11.83
2024-05-09T01:20:44.734Z,11.89
2024-05-09T01:23:15.769Z,11.94
2024-05-09T01:25:46.535Z,11.97
2024-05-09T01:28:16.306Z,11.97
2024-05-09T01:30:44.627Z,11.97
2024-05-09T01:33:13.409Z,11.93
2024-05-09T01:35:42.786Z,11.89
2024-05-09T01:38:13.764Z,11.83
2024-05-09T01:40:43.902Z,11.76
2024-05-09T01:43:12.369Z,11.71
2024-05-09T01:45:41.215Z,11.69
2024-05-09T01:48:10.733Z,11.68
2024-05-09T01:50:42.263Z,11.64
2024-05-09T01:53:14.400Z,11.59
2024-05-09T01:55:44.031Z,11.53
2024-05-09T01:58:12.173Z,11.48
2024-05-09T02:00:42.542Z,11.42
2024-05-09T02:03:16.237Z,11.38
2024-05-09T02:05:49.620Z,11.35
2024-05-09T02:08:19.546Z,11.33
2024-05-09T02:10:50.344Z,11.32
2024-05-09T02:13:19.009Z,11.35
2024-05-09T02:15:47.099Z,11.39
2024-05-09T02:18:15.363Z,11.45
2024-05-09T02:20:44.137Z,11.48
2024-05-09T02:23:13.695Z,11.54
2024-05-09T02:25:42.024Z,11.58
2024-05-09T02:28:09.957Z,11.61
2024-05-09T02:30:41.098Z,11.61
2024-05-09T02:33:12.453Z,11.60
2024-05-09T02:35:43.660Z,11.60
2024-05-09T02:38:13.221Z,11.62
2024-05-09T02:40:41.561Z,11.64
2024-05-09T02:43:12.721Z,11.62
2024-05-09T02:45:41.625Z,11.61
2024-05-09T02:48:11.528Z,11.64
2024-05-09T02:50:44.746Z,11.68
2024-05-09T02:53:14.563Z,11.71
2024-05-09T02:55:43.348Z,11.70
2024-05-09T02:58:11.983Z,11.69
2024-05-09T03:00:42.144Z,11.67
2024-05-09T03:03:14.562Z,11.67
2024-05-09T03:05:47.084Z,11.67
2024-05-09T03:08:15.444Z,11.66
2024-05-09T03:10:43.804Z,11.64
2024-05-09T03:13:15.453Z,11.65
2024-05-09T03:15:45.492Z,11.66
2024-05-09T03:18:13.999Z,11.68
2024-05-09T03:20:44.089Z,11.70
2024-05-09T03:23:12.934Z,11.72
2024-05-09T03:25:41.300Z,11.75
2024-05-09T03:28:09.475Z,11.74
2024-05-09T03:30:41.952Z,11.72
2024-05-09T03:33:15.628Z,11.68
2024-05-09T03:35:44.432Z,11.67
2024-05-09T03:38:12.613Z,11.66
2024-05-09T03:40:50.882Z,11.65
2024-05-09T03:43:20.305Z,11.67
2024-05-09T03:45:50.759Z,11.69
2024-05-09T03:48:19.138Z,11.71
2024-05-09T03:50:47.690Z,11.73
2024-05-09T03:53:15.878Z,11.74
2024-05-09T03:55:44.108Z,11.74
2024-05-09T03:58:14.543Z,11.76
2024-05-09T04:00:43.261Z,11.77
2024-05-09T04:03:13.056Z,11.79
2024-05-09T04:05:44.026Z,11.82
2024-05-09T04:08:15.555Z,11.85
2024-05-09T04:10:44.258Z,11.92
2024-05-09T04:13:12.551Z,12.04
2024-05-09T04:15:40.618Z,12.19
2024-05-09T04:18:08.767Z,12.35
2024-05-09T04:20:39.857Z,12.52
2024-05-09T04:23:14.388Z,12.68
2024-05-09T04:25:45.147Z,12.81
2024-05-09T04:28:14.259Z,12.91
2024-05-09T04:30:43.299Z,13.01
2024-05-09T04:33:13.594Z,13.15
2024-05-09T04:35:44.045Z,13.31
2024-05-09T04:38:14.612Z,13.49
2024-05-09T04:40:43.514Z,13.63
2024-05-09T04:43:17.106Z,13.73
2024-05-09T04:45:45.522Z,13.80
2024-05-09T04:48:13.679Z,13.84
2024-05-09T04:50:42.255Z,13.82
2024-05-09T04:53:16.387Z,13.80
2024-05-09T04:55:45.470Z,13.76
2024-05-09T04:58:13.548Z,13.72
2024-05-09T05:00:41.986Z,13.69
2024-05-09T05:03:14.261Z,13.66
2024-05-09T05:05:46.320Z,13.67
2024-05-09T05:08:16.746Z,13.67
2024-05-09T05:10:47.089Z,13.64
2024-05-09T05:13:17.633Z,13.64
2024-05-09T05:15:47.547Z,13.63
2024-05-09T05:18:16.249Z,13.65
2024-05-09T05:20:44.880Z,13.67
2024-05-09T05:23:15.410Z,13.71
2024-05-09T05:25:44.510Z,13.70
2024-05-09T05:28:12.666Z,13.77
2024-05-09T05:30:41.419Z,13.86
2024-05-09T05:33:14.712Z,14.00
2024-05-09T05:35:43.566Z,14.22
2024-05-09T05:38:11.771Z,14.42
2024-05-09T05:40:40.845Z,14.59
2024-05-09T05:43:15.917Z,14.74
2024-05-09T05:45:45.505Z,14.88
2024-05-09T05:48:16.471Z,15.09
2024-05-09T05:50:45.123Z,15.39
2024-05-09T05:53:13.505Z,15.52
2024-05-09T05:55:42.109Z,15.68
2024-05-09T05:58:14.965Z,15.79
2024-05-09T06:00:44.143Z,15.95
2024-05-09T06:03:13.784Z,16.04
2024-05-09T06:05:48.374Z,16.14
2024-05-09T06:08:16.479Z,16.27
2024-05-09T06:10:44.703Z,16.18
2024-05-09T06:13:14.105Z,16.37
2024-05-09T06:15:43.431Z,16.58
2024-05-09T06:18:14.875Z,16.70
2024-05-09T06:20:44.171Z,16.70
2024-05-09T06:23:13.347Z,16.78
2024-05-09T06:25:42.685Z,16.82
2024-05-09T06:28:11.455Z,16.83
2024-05-09T06:30:42.491Z,16.87
2024-05-09T06:33:14.385Z,16.99
2024-05-09T06:35:44.941Z,17.14
2024-05-09T06:38:13.590Z,17.17
2024-05-09T06:40:43.812Z,17.35
2024-05-09T06:43:18.515Z,17.48
2024-05-09T06:45:49.389Z,17.66
2024-05-09T06:48:19.751Z,17.80
2024-05-09T06:50:48.705Z,17.78
2024-05-09T06:53:20.527Z,18.00
2024-05-09T06:55:48.835Z,18.12
2024-05-09T06:58:17.009Z,18.28
2024-05-09T07:00:45.159Z,18.53
2024-05-09T07:03:17.134Z,18.63
2024-05-09T07:05:48.723Z,19.00
2024-05-09T07:08:18.351Z,19.74
2024-05-09T07:10:46.790Z,20.49
2024-05-09T07:13:15.918Z,20.61
2024-05-09T07:15:44.275Z,19.93
2024-05-09T07:18:15.899Z,19.82
2024-05-09T07:20:45.986Z,19.49
2024-05-09T07:23:14.610Z,19.65
2024-05-09T07:25:43.317Z,19.58
2024-05-09T07:28:16.210Z,19.80
2024-05-09T07:30:45.571Z,20.03
2024-05-09T07:33:18.377Z,20.31
2024-05-09T07:35:47.309Z,20.70
2024-05-09T07:38:15.469Z,20.70
2024-05-09T07:40:43.561Z,20.64
2024-05-09T07:43:13.029Z,20.80
2024-05-09T07:45:50.649Z,21.25
2024-05-09T07:52:39.189Z,21.22
2024-05-09T07:53:49.215Z,21.47
2024-05-09T07:56:22.584Z,22.00
2024-05-09T07:58:54.161Z,22.04
2024-05-09T08:01:22.623Z,22.10
2024-05-09T08:03:50.907Z,22.33
2024-05-09T08:06:19.115Z,22.52
2024-05-09T08:08:47.633Z,22.52
2024-05-09T08:11:15.715Z,22.35
2024-05-09T08:13:43.818Z,22.45
2024-05-09T08:16:14.094Z,22.42
2024-05-09T08:18:42.877Z,22.27
2024-05-09T08:21:11.021Z,22.29
2024-05-09T08:23:39.094Z,22.45
2024-05-09T08:26:07.457Z,22.79
2024-05-09T08:28:35.370Z,22.92
2024-05-09T08:31:06.659Z,22.39
2024-05-09T08:33:35.384Z,21.95
2024-05-09T08:36:03.815Z,21.66
2024-05-09T08:38:31.827Z,21.69
2024-05-09T08:41:03.535Z,21.68
2024-05-09T08:43:31.619Z,21.67
2024-05-09T08:46:00.394Z,21.22
2024-05-09T08:48:31.320Z,20.62
2024-05-09T08:51:01.137Z,20.91
2024-05-09T08:53:29.152Z,20.61
2024-05-09T08:56:02.457Z,20.71
2024-05-09T08:58:31.855Z,21.10
2024-05-09T09:01:02.541Z,21.47
2024-05-09T09:03:33.789Z,21.61
2024-05-09T09:06:06.847Z,21.61
2024-05-09T09:08:38.898Z,21.98
2024-05-09T09:11:07.371Z,22.37
2024-05-09T09:13:35.344Z,22.57
2024-05-09T09:16:03.898Z,22.65
2024-05-09T09:18:33.155Z,22.62
2024-05-09T09:21:03.303Z,22.07
2024-05-09T09:23:31.400Z,22.13
2024-05-09T09:26:00.391Z,21.98
2024-05-09T09:28:29.605Z,21.45
2024-05-09T09:31:04.533Z,20.95
2024-05-09T09:33:35.900Z,21.23
2024-05-09T09:36:06.947Z,21.28
2024-05-09T09:38:37.880Z,21.57
2024-05-09T09:41:13.181Z,21.78
2024-05-09T09:43:42.804Z,21.96
2024-05-09T09:46:12.943Z,22.13
2024-05-09T09:48:42.719Z,22.23
2024-05-09T09:51:11.509Z,22.54
2024-05-09T09:53:40.093Z,22.80
2024-05-09T09:56:10.541Z,22.30
2024-05-09T09:58:40.236Z,22.03
2024-05-09T10:01:08.489Z,22.16
2024-05-09T10:03:36.924Z,22.17
2024-05-09T10:06:06.998Z,22.31
2024-05-09T10:08:36.370Z,22.03
2024-05-09T10:11:04.746Z,21.78
2024-05-09T10:13:35.070Z,21.89
2024-05-09T10:16:10.912Z,21.44
2024-05-09T10:18:40.731Z,21.49
2024-05-09T10:21:19.504Z,21.73
2024-05-09T10:24:02.677Z,21.66
2024-05-09T10:26:32.940Z,21.63
2024-05-09T10:29:10.841Z,21.44
2024-05-09T10:31:41.669Z,21.41
2024-05-09T10:34:20.726Z,20.79
2024-05-09T10:36:55.570Z,21.01
2024-05-09T10:39:25.401Z,21.13
2024-05-09T10:41:53.358Z,21.39
2024-05-09T10:44:21.705Z,21.35
2024-05-09T10:46:50.734Z,21.60
2024-05-09T10:49:19.165Z,21.29
2024-05-09T10:51:48.705Z,21.01
2024-05-09T10:54:17.406Z,21.13
2024-05-09T10:56:45.538Z,21.27
2024-05-09T10:59:13.613Z,20.91
2024-05-09T11:01:41.829Z,21.26
2024-05-09T11:04:10.234Z,21.24
2024-05-09T11:06:39.194Z,21.31
2024-05-09T11:09:07.800Z,21.00
2024-05-09T11:11:36.077Z,20.99
2024-05-09T11:14:12.584Z,20.72
2024-05-09T11:16:40.655Z,20.70
2024-05-09T11:19:14.728Z,20.53
2024-05-09T11:21:43.235Z,20.36
2024-05-09T11:24:12.261Z,20.78
2024-05-09T11:26:40.311Z,20.78
2024-05-09T11:29:08.416Z,20.25
2024-05-09T11:31:49.110Z,20.01
2024-05-09T11:34:17.363Z,20.46
2024-05-09T11:36:45.660Z,20.73
2024-05-09T11:39:14.825Z,20.85
2024-05-09T11:41:43.100Z,20.70
2024-05-09T11:44:11.562Z,20.66
2024-05-09T11:46:39.717Z,20.73
2024-05-09T11:49:09.662Z,20.65
2024-05-09T11:51:37.977Z,20.55
2024-05-09T11:54:06.080Z,20.65
2024-05-09T11:56:34.366Z,20.64
2024-05-09T11:59:02.841Z,20.74
2024-05-09T12:01:30.978Z,20.76
2024-05-09T12:03:59.449Z,20.89
2024-05-09T12:06:29.525Z,21.07
2024-05-09T12:08:57.999Z,21.16
2024-05-09T12:11:26.108Z,20.64
2024-05-09T12:13:54.257Z,20.56
2024-05-09T12:18:50.677Z,20.44
2024-05-09T12:21:18.863Z,20.51
2024-05-09T12:23:46.929Z,20.66
2024-05-09T12:26:15.974Z,20.69
2024-05-09T12:28:44.199Z,20.65
2024-05-09T12:31:12.313Z,20.59
2024-05-09T12:33:40.326Z,20.72
2024-05-09T12:36:08.511Z,20.69
2024-05-09T12:38:36.496Z,20.86
2024-05-09T12:41:05.091Z,20.82
2024-05-09T12:43:33.245Z,20.65
2024-05-09T12:46:03.520Z,20.52
2024-05-09T12:48:31.816Z,20.37
2024-05-09T12:51:00.114Z,20.42
2024-05-09T12:53:28.396Z,20.09
2024-05-09T12:56:00.098Z,20.18
2024-05-09T12:58:31.126Z,19.80
2024-05-09T13:00:59.384Z,19.76
2024-05-09T13:03:27.712Z,19.55
2024-05-09T13:05:56.117Z,19.46
2024-05-09T13:08:24.495Z,19.50
2024-05-09T13:10:52.557Z,19.65
2024-05-09T13:13:20.979Z,19.73
2024-05-09T13:15:49.329Z,19.73
2024-05-09T13:18:17.953Z,19.71
2024-05-09T13:20:46.082Z,19.69
2024-05-09T13:23:14.160Z,19.72
2024-05-09T13:25:42.438Z,19.68
2024-05-09T13:28:10.774Z,19.78
2024-05-09T13:30:41.705Z,19.79
2024-05-09T13:33:12.310Z,19.82
2024-05-09T13:35:48.697Z,19.76
2024-05-09T13:38:20.632Z,19.84
2024-05-09T13:40:49.981Z,19.90
2024-05-09T13:43:19.261Z,19.97
2024-05-09T13:45:47.778Z,19.93
2024-05-09T13:48:16.108Z,19.83
2024-05-09T13:50:44.367Z,19.58
2024-05-09T13:53:12.324Z,19.34
2024-05-09T13:55:40.674Z,19.41
2024-05-09T13:58:09.622Z,19.32
2024-05-09T14:00:46.146Z,19.28
2024-05-09T14:03:20.015Z,19.43
2024-05-09T14:05:51.130Z,19.29
2024-05-09T14:08:22.237Z,19.06
2024-05-09T14:10:51.360Z,19.18
2024-05-09T14:13:20.121Z,19.22
2024-05-09T14:15:48.704Z,19.19
2024-05-09T14:18:17.410Z,19.28
2024-05-09T14:20:45.559Z,19.29
2024-05-09T14:23:14.908Z,19.29
2024-05-09T14:25:44.599Z,19.26
2024-05-09T14:28:13.798Z,19.31
2024-05-09T14:30:42.648Z,19.39
2024-05-09T14:33:11.408Z,19.39
2024-05-09T14:35:39.837Z,19.37
2024-05-09T14:38:09.235Z,19.38
2024-05-09T14:40:42.316Z,19.37
2024-05-09T14:43:14.119Z,19.43
2024-05-09T14:45:43.873Z,19.55
2024-05-09T14:48:14.793Z,19.63
2024-05-09T14:50:43.317Z,19.67
2024-05-09T14:53:13.168Z,19.61
2024-05-09T14:55:43.384Z,19.50
2024-05-09T14:58:13.479Z,19.41
2024-05-09T15:00:46.487Z,19.19
2024-05-09T15:03:19.943Z,19.17
2024-05-09T15:05:49.155Z,19.23
2024-05-09T15:08:19.064Z,19.22
2024-05-09T15:10:49.892Z,19.17
2024-05-09T15:13:19.774Z,18.98
2024-05-09T15:15:48.571Z,18.96
2024-05-09T15:18:17.435Z,18.97
2024-05-09T15:20:45.842Z,18.90
2024-05-09T15:23:14.132Z,18.87
2024-05-09T15:25:44.355Z,18.81
2024-05-09T15:28:12.649Z,18.86
2024-05-09T15:30:44.126Z,18.76
2024-05-09T15:33:15.295Z,18.76
2024-05-09T15:35:44.942Z,18.80
2024-05-09T15:38:14.503Z,18.83
2024-05-09T15:40:42.574Z,18.82
2024-05-09T15:43:11.669Z,18.78
2024-05-09T15:45:41.358Z,18.77
2024-05-09T15:48:10.880Z,18.79
2024-05-09T15:50:41.727Z,18.78
2024-05-09T15:53:13.386Z,18.78
2024-05-09T15:55:43.295Z,18.80
2024-05-09T15:58:12.684Z,18.74
2024-05-09T16:00:44.776Z,18.75
2024-05-09T16:03:15.175Z,18.77
2024-05-09T16:05:45.714Z,18.76
2024-05-09T16:08:15.276Z,18.73
2024-05-09T16:10:46.058Z,18.68
2024-05-09T16:13:16.622Z,18.64
2024-05-09T16:15:46.386Z,18.59
2024-05-09T16:18:15.110Z,18.53
2024-05-09T16:23:11.383Z,18.41
2024-05-09T16:25:43.021Z,18.37
2024-05-09T16:28:11.852Z,18.31
2024-05-09T16:30:40.286Z,18.25
2024-05-09T16:33:09.507Z,18.20
2024-05-09T16:35:39.443Z,18.15
2024-05-09T16:38:07.872Z,18.11
2024-05-09T16:40:40.067Z,18.05
2024-05-09T16:43:12.336Z,17.97
2024-05-09T16:45:45.032Z,17.87
2024-05-09T16:48:14.264Z,17.77
2024-05-09T16:50:43.398Z,17.65
2024-05-09T16:53:13.516Z,17.50
2024-05-09T16:55:41.466Z,17.28
2024-05-09T16:58:11.967Z,17.11
2024-05-09T17:00:43.219Z,16.98
2024-05-09T17:03:15.140Z,16.87
2024-05-09T17:05:48.490Z,16.76
2024-05-09T17:08:20.871Z,16.69
2024-05-09T17:10:49.670Z,16.51
2024-05-09T17:13:18.902Z,16.30
2024-05-09T17:15:48.080Z,16.15
2024-05-09T17:18:16.728Z,16.01
2024-05-09T17:20:44.916Z,15.91
2024-05-09T17:23:14.096Z,15.83
2024-05-09T17:25:43.271Z,15.77
2024-05-09T17:28:12.235Z,15.71
2024-05-09T17:30:42.188Z,15.63
2024-05-09T17:33:13.346Z,15.53
2024-05-09T17:35:42.089Z,15.40
2024-05-09T17:38:10.325Z,15.30
2024-05-09T17:40:39.304Z,15.19
2024-05-09T17:43:10.641Z,15.10
2024-05-09T17:45:41.052Z,15.00
2024-05-09T17:48:11.473Z,14.90
2024-05-09T17:50:41.685Z,14.78
2024-05-09T17:53:10.932Z,14.69
2024-05-09T17:55:40.424Z,14.59
2024-05-09T17:58:09.789Z,14.47
2024-05-09T18:00:41.209Z,14.34
2024-05-09T18:03:11.946Z,14.23
2024-05-09T18:05:43.973Z,14.15
2024-05-09T18:08:13.467Z,14.06
2024-05-09T18:10:42.491Z,13.96
2024-05-09T18:13:12.289Z,13.84
2024-05-09T18:15:40.910Z,13.72
2024-05-09T18:18:10.724Z,13.61
2024-05-09T18:20:44.026Z,13.49
2024-05-09T18:23:16.813Z,13.35
2024-05-09T18:25:47.797Z,13.20
2024-05-09T18:28:17.166Z,13.03
2024-05-09T18:30:46.087Z,12.88
2024-05-09T18:33:14.863Z,12.73
2024-05-09T18:35:44.306Z,12.57
2024-05-09T18:38:12.879Z,12.42
2024-05-09T18:40:42.970Z,12.28
2024-05-09T18:43:13.356Z,12.13
2024-05-09T18:45:41.463Z,11.99
2024-05-09T18:48:10.259Z,11.87
2024-05-09T18:50:40.827Z,11.77
2024-05-09T18:53:12.069Z,11.68
2024-05-09T18:55:44.641Z,11.55
2024-05-09T18:58:12.844Z,11.42
2024-05-09T19:00:44.026Z,11.31
2024-05-09T19:03:14.928Z,11.19
2024-05-09T19:05:45.907Z,11.07
2024-05-09T19:08:15.457Z,10.98
2024-05-09T19:10:46.020Z,10.87
2024-05-09T19:13:15.077Z,10.81
2024-05-09T19:15:44.430Z,10.74
2024-05-09T19:18:14.386Z,10.68
2024-05-09T19:20:43.823Z,10.64
2024-05-09T19:23:12.508Z,10.57
2024-05-09T19:25:40.667Z,10.56
2024-05-09T19:28:08.980Z,10.56
2024-05-09T19:30:41.019Z,10.58
2024-05-09T19:33:13.214Z,10.58
2024-05-09T19:35:43.660Z,10.54
2024-05-09T19:38:12.790Z,10.50
2024-05-09T19:40:41.329Z,10.48
2024-05-09T19:43:09.804Z,10.49
2024-05-09T19:45:38.468Z,10.49
2024-05-09T19:48:07.444Z,10.45
2024-05-09T19:50:41.871Z,10.44
2024-05-09T19:53:14.618Z,10.40
2024-05-09T19:55:43.264Z,10.38
2024-05-09T19:58:12.704Z,10.32
2024-05-09T20:00:43.420Z,10.25
2024-05-09T20:03:14.970Z,10.19
2024-05-09T20:05:46.583Z,10.16
2024-05-09T20:08:16.772Z,10.14
2024-05-09T20:10:44.968Z,10.07
2024-05-09T20:13:13.771Z,9.97
2024-05-09T20:15:42.377Z,9.83
2024-05-09T20:18:10.957Z,9.71
2024-05-09T20:20:42.501Z,9.62
2024-05-09T20:23:12.975Z,9.53
2024-05-09T20:25:41.864Z,9.47
2024-05-09T20:28:10.866Z,9.41
2024-05-09T20:30:39.575Z,9.34
2024-05-09T20:33:09.001Z,9.26
2024-05-09T20:35:38.146Z,9.17
2024-05-09T20:38:06.424Z,9.12
2024-05-09T20:40:37.774Z,9.12
2024-05-09T20:43:09.957Z,9.13
2024-05-09T20:45:38.901Z,9.12
2024-05-09T20:48:08.669Z,9.07
2024-05-09T20:50:40.604Z,9.04
2024-05-09T20:53:12.916Z,8.99
2024-05-09T20:55:43.014Z,8.99
2024-05-09T20:58:11.884Z,8.95
2024-05-09T21:00:43.615Z,8.94
2024-05-09T21:03:18.196Z,8.95
2024-05-09T21:05:48.537Z,8.95
2024-05-09T21:08:17.264Z,8.95
2024-05-09T21:10:45.464Z,8.95
2024-05-09T21:13:13.851Z,8.95
2024-05-09T21:15:42.028Z,8.95
2024-05-09T21:18:10.439Z,8.92
2024-05-09T21:20:38.627Z,8.88
2024-05-09T21:23:06.516Z,8.83
2024-05-09T21:25:34.841Z,8.82
2024-05-09T21:28:03.022Z,8.81
2024-05-09T21:30:38.865Z,8.79
2024-05-09T21:33:13.724Z,8.80
2024-05-09T21:35:44.277Z,8.82
2024-05-09T21:38:14.626Z,8.84
2024-05-09T21:40:44.136Z,8.84
2024-05-09T21:43:12.584Z,8.81
2024-05-09T21:45:40.617Z,8.77
2024-05-09T21:48:09.477Z,8.75
2024-05-09T21:50:41.068Z,8.69
2024-05-09T21:53:11.915Z,8.56
2024-05-09T21:55:43.885Z,8.38
2024-05-09T21:58:13.512Z,8.29
2024-05-09T22:00:45.293Z,8.21
2024-05-09T22:03:14.293Z,8.17
2024-05-09T22:05:44.765Z,8.15
2024-05-09T22:08:13.458Z,8.09
2024-05-09T22:10:41.666Z,8.03
2024-05-09T22:13:09.867Z,7.91
2024-05-09T22:15:40.383Z,7.82
2024-05-09T22:18:10.847Z,7.76
2024-05-09T22:20:45.116Z,7.70
2024-05-09T22:23:15.509Z,7.64
2024-05-09T22:25:44.028Z,7.56
2024-05-09T22:28:15.389Z,7.50
2024-05-09T22:30:45.976Z,7.45
2024-05-09T22:33:15.266Z,7.38
2024-05-09T22:35:43.532Z,7.35
2024-05-09T22:38:11.825Z,7.35
2024-05-09T22:40:47.275Z,7.35
2024-05-09T22:43:23.139Z,7.35
2024-05-09T22:45:56.921Z,7.36
2024-05-09T22:48:25.813Z,7.36
2024-05-09T22:50:54.750Z,7.36
2024-05-09T22:53:24.804Z,7.38
2024-05-09T22:55:53.714Z,7.39
2024-05-09T22:58:23.584Z,7.43
2024-05-09T23:00:52.442Z,7.46
2024-05-09T23:03:21.915Z,7.42
2024-05-09T23:05:52.128Z,7.39
2024-05-09T23:08:20.100Z,7.40
2024-05-09T23:10:48.118Z,7.39
2024-05-09T23:13:16.307Z,7.37
2024-05-09T23:15:44.462Z,7.32
2024-05-09T23:18:12.837Z,7.28
2024-05-09T23:20:41.065Z,7.31
2024-05-09T23:23:10.685Z,7.37
2024-05-09T23:25:43.832Z,7.40
2024-05-09T23:28:12.690Z,7.41
2024-05-09T23:30:41.952Z,7.42
2024-05-09T23:33:12.650Z,7.35
2024-05-09T23:35:42.445Z,7.33
2024-05-09T23:38:10.783Z,7.33
2024-05-09T23:40:41.109Z,7.27
2024-05-09T23:43:11.841Z,7.18
2024-05-09T23:45:41.442Z,7.10
2024-05-09T23:48:11.072Z,7.01
2024-05-09T23:50:40.723Z,6.91
2024-05-09T23:53:10.402Z,6.81
2024-05-09T23:55:39.412Z,6.72
2024-05-09T23:58:09.281Z,6.65
